createdAt,value
2022-12-11T00:02:10.144Z,26.55
2022-12-11T00:04:36.888Z,27.03
2022-12-11T00:07:03.590Z,25.52
2022-12-11T00:09:31.276Z,26.52
2022-12-11T00:11:58.082Z,27.80
2022-12-11T00:14:24.887Z,25.64
2022-12-11T00:16:52.032Z,27.87
2022-12-11T00:19:18.858Z,27.70
2022-12-11T00:21:45.815Z,27.19
2022-12-11T00:24:12.589Z,27.00
2022-12-11T00:26:39.378Z,27.49
2022-12-11T00:29:06.272Z,27.29
2022-12-11T00:31:33.086Z,26.63
2022-12-11T00:34:01.585Z,26.01
2022-12-11T00:36:28.303Z,25.25
2022-12-11T00:38:55.752Z,23.80
2022-12-11T00:41:23.366Z,22.76
2022-12-11T00:43:50.120Z,21.79
2022-12-11T00:46:16.987Z,21.32
2022-12-11T00:48:44.902Z,19.47
2022-12-11T00:51:11.894Z,20.24
2022-12-11T00:53:45.176Z,20.99
2022-12-11T00:56:13.865Z,19.65
2022-12-11T00:58:40.894Z,21.37
2022-12-11T01:01:12.881Z,20.67
2022-12-11T01:03:40.737Z,20.83
2022-12-11T01:06:08.175Z,21.38
2022-12-11T01:08:38.500Z,20.89
2022-12-11T01:11:07.652Z,21.83
2022-12-11T01:13:35.016Z,21.52
2022-12-11T01:16:06.317Z,21.48
2022-12-11T01:18:33.102Z,21.48
2022-12-11T01:20:59.898Z,22.72
2022-12-11T01:23:27.101Z,21.94
2022-12-11T01:25:54.029Z,22.12
2022-12-11T01:28:21.127Z,22.11
2022-12-11T01:30:48.947Z,21.32
2022-12-11T01:33:17.003Z,21.93
2022-12-11T01:35:45.135Z,21.32
2022-12-11T01:38:13.831Z,21.42
2022-12-11T01:40:52.531Z,22.07
2022-12-11T01:43:19.549Z,22.70
2022-12-11T01:45:47.536Z,22.48
2022-12-11T01:48:21.399Z,22.23
2022-12-11T01:50:54.175Z,21.81
2022-12-11T01:53:27.255Z,21.92
2022-12-11T01:55:54.917Z,22.53
2022-12-11T01:58:22.729Z,23.25
2022-12-11T02:00:49.563Z,22.23
2022-12-11T02:03:17.321Z,23.77
2022-12-11T02:05:44.085Z,22.73
2022-12-11T02:08:12.331Z,22.39
2022-12-11T02:10:46.252Z,21.55
2022-12-11T02:13:50.743Z,21.88
2022-12-11T02:16:31.844Z,22.60
2022-12-11T02:19:03.350Z,22.42
2022-12-11T02:21:34.761Z,21.51
2022-12-11T02:24:20.155Z,23.47
2022-12-11T02:26:56.949Z,23.43
2022-12-11T02:29:29.925Z,23.42
2022-12-11T02:32:03.676Z,22.90
2022-12-11T02:34:42.529Z,24.44
2022-12-11T02:37:35.338Z,24.08
2022-12-11T02:40:02.860Z,24.40
2022-12-11T02:42:32.409Z,25.07
2022-12-11T02:44:59.779Z,24.19
2022-12-11T02:47:28.199Z,24.19
2022-12-11T02:49:54.994Z,24.01
2022-12-11T02:52:22.246Z,25.20
2022-12-11T02:54:48.960Z,24.07
2022-12-11T02:57:19.768Z,24.86
2022-12-11T03:02:15.435Z,25.31
2022-12-11T03:04:42.251Z,25.60
2022-12-11T03:07:23.455Z,25.53
2022-12-11T03:09:51.156Z,26.48
2022-12-11T03:12:25.816Z,25.61
2022-12-11T03:14:52.832Z,24.92
2022-12-11T03:17:24.530Z,23.30
2022-12-11T03:20:01.961Z,24.48
2022-12-11T03:22:29.449Z,23.63
2022-12-11T03:25:04.272Z,25.48
2022-12-11T03:27:38.131Z,24.81
2022-12-11T03:30:07.544Z,24.83
2022-12-11T03:32:50.188Z,24.73
2022-12-11T03:35:26.444Z,26.11
2022-12-11T03:37:53.271Z,26.96
2022-12-11T03:40:20.818Z,26.87
2022-12-11T03:42:51.068Z,26.33
2022-12-11T03:45:18.784Z,26.61
2022-12-11T03:47:45.925Z,26.10
2022-12-11T03:50:14.508Z,25.87
2022-12-11T03:52:45.708Z,26.31
2022-12-11T03:55:14.489Z,26.18
2022-12-11T03:57:41.265Z,25.88
2022-12-11T04:00:10.094Z,26.33
2022-12-11T04:02:36.808Z,26.82
2022-12-11T04:05:03.568Z,27.21
2022-12-11T04:07:30.480Z,27.62
2022-12-11T04:09:57.324Z,28.41
2022-12-11T04:12:43.116Z,26.78
2022-12-11T04:15:11.139Z,27.73
2022-12-11T04:17:51.020Z,26.35
2022-12-11T04:20:38.167Z,25.24
2022-12-11T04:23:25.269Z,24.92
2022-12-11T04:25:52.082Z,25.11
2022-12-11T04:28:18.848Z,24.93
2022-12-11T04:30:51.797Z,24.44
2022-12-11T04:33:18.966Z,24.17
2022-12-11T04:35:45.694Z,24.26
2022-12-11T04:38:12.527Z,23.18
2022-12-11T04:40:40.394Z,22.80
2022-12-11T04:43:07.109Z,22.46
2022-12-11T04:45:34.004Z,22.39
2022-12-11T04:48:00.973Z,22.39
2022-12-11T04:50:27.705Z,20.56
2022-12-11T04:52:55.237Z,20.21
2022-12-11T04:55:22.105Z,19.07
2022-12-11T04:57:48.824Z,19.38
2022-12-11T05:00:16.972Z,18.87
2022-12-11T05:02:44.253Z,18.39
2022-12-11T05:05:11.410Z,18.78
2022-12-11T05:07:38.306Z,19.36
2022-12-11T05:10:05.767Z,18.87
2022-12-11T05:12:32.760Z,19.03
2022-12-11T05:14:59.770Z,20.18
2022-12-11T05:17:26.530Z,19.41
2022-12-11T05:19:53.342Z,20.93
2022-12-11T05:22:20.413Z,20.50
2022-12-11T05:24:47.121Z,21.00
2022-12-11T05:27:14.170Z,20.57
2022-12-11T05:29:43.704Z,19.83
2022-12-11T05:32:10.708Z,20.92
2022-12-11T05:34:37.423Z,20.91
2022-12-11T05:37:04.189Z,22.11
2022-12-11T05:39:30.950Z,21.37
2022-12-11T05:41:57.649Z,21.85
2022-12-11T05:44:24.754Z,21.74
2022-12-11T05:46:51.571Z,22.68
2022-12-11T05:49:20.034Z,22.20
2022-12-11T05:51:47.046Z,22.42
2022-12-11T05:54:13.969Z,22.51
2022-12-11T05:56:41.046Z,24.42
2022-12-11T05:59:09.159Z,25.37
2022-12-11T06:01:42.786Z,26.42
2022-12-11T06:04:10.319Z,26.29
2022-12-11T06:06:37.111Z,26.82
2022-12-11T06:09:04.428Z,26.17
2022-12-11T06:11:31.650Z,27.13
2022-12-11T06:13:58.703Z,25.47
2022-12-11T06:16:25.489Z,26.32
2022-12-11T06:18:57.020Z,25.99
2022-12-11T06:21:27.652Z,24.64
2022-12-11T06:23:55.094Z,24.10
2022-12-11T06:26:21.889Z,23.67
2022-12-11T06:28:48.817Z,24.48
2022-12-11T06:31:15.724Z,23.84
2022-12-11T06:33:42.590Z,22.30
2022-12-11T06:36:15.756Z,22.14
2022-12-11T06:38:42.622Z,21.10
2022-12-11T06:41:09.958Z,22.06
2022-12-11T06:43:37.824Z,21.48
2022-12-11T06:46:10.109Z,22.35
2022-12-11T06:48:37.230Z,24.66
2022-12-11T06:51:08.096Z,23.73
2022-12-11T06:53:35.416Z,23.81
2022-12-11T06:56:07.456Z,22.70
2022-12-11T06:58:34.415Z,22.16
2022-12-11T07:01:01.291Z,22.49
2022-12-11T07:03:28.336Z,23.83
2022-12-11T07:05:59.389Z,25.27
2022-12-11T07:08:28.216Z,24.79
2022-12-11T07:10:55.070Z,25.55
2022-12-11T07:13:21.790Z,25.84
2022-12-11T07:15:48.501Z,26.89
2022-12-11T07:18:15.330Z,26.65
2022-12-11T07:20:42.125Z,27.45
2022-12-11T07:23:10.916Z,26.46
2022-12-11T07:25:37.753Z,26.94
2022-12-11T07:28:04.684Z,25.94
2022-12-11T07:30:31.897Z,26.89
2022-12-11T07:33:01.033Z,26.63
2022-12-11T07:35:28.145Z,27.03
2022-12-11T07:37:55.302Z,27.89
2022-12-11T07:40:22.205Z,28.02
2022-12-11T07:42:49.192Z,27.26
2022-12-11T07:45:15.957Z,25.63
2022-12-11T07:47:43.041Z,25.69
2022-12-11T07:50:10.691Z,24.11
2022-12-11T07:52:38.151Z,23.62
2022-12-11T07:55:05.462Z,22.55
2022-12-11T07:57:33.634Z,21.98
2022-12-11T08:00:00.991Z,21.75
2022-12-11T08:02:30.215Z,21.68
2022-12-11T08:05:00.998Z,21.24
2022-12-11T08:07:27.865Z,21.39
2022-12-11T08:09:54.559Z,20.58
2022-12-11T08:12:21.453Z,19.68
2022-12-11T08:14:48.240Z,18.92
2022-12-11T08:17:15.357Z,17.41
2022-12-11T08:19:42.135Z,15.55
2022-12-11T08:22:08.844Z,14.50
2022-12-11T08:24:38.833Z,14.00
2022-12-11T08:27:05.836Z,13.90
2022-12-11T08:29:33.652Z,13.76
2022-12-11T08:32:00.462Z,13.23
2022-12-11T08:34:27.360Z,13.59
2022-12-11T08:37:00.449Z,13.55
2022-12-11T08:39:32.611Z,13.40
2022-12-11T08:41:59.321Z,12.48
2022-12-11T08:44:26.095Z,13.02
2022-12-11T08:46:52.857Z,13.12
2022-12-11T08:49:19.789Z,12.79
2022-12-11T08:51:46.485Z,13.57
2022-12-11T08:54:13.191Z,13.04
2022-12-11T08:56:40.111Z,12.77
2022-12-11T08:59:09.622Z,12.89
2022-12-11T09:01:36.436Z,13.47
2022-12-11T09:04:04.849Z,13.51
2022-12-11T09:06:32.601Z,13.92
2022-12-11T09:08:59.986Z,13.75
2022-12-11T09:11:29.032Z,14.46
2022-12-11T09:13:56.060Z,14.11
2022-12-11T09:16:23.599Z,14.45
2022-12-11T09:18:51.142Z,15.25
2022-12-11T09:21:19.917Z,15.36
2022-12-11T09:23:46.760Z,15.40
2022-12-11T09:26:15.341Z,14.42
2022-12-11T09:28:46.232Z,14.59
2022-12-11T09:31:16.582Z,15.05
2022-12-11T09:33:43.926Z,14.36
2022-12-11T09:36:11.134Z,15.26
2022-12-11T09:38:40.845Z,14.25
2022-12-11T09:41:36.127Z,14.68
2022-12-11T09:44:24.291Z,14.66
2022-12-11T09:46:51.550Z,15.25
2022-12-11T09:49:29.332Z,15.72
2022-12-11T09:52:20.687Z,15.09
2022-12-11T09:54:52.649Z,16.68
2022-12-11T09:57:40.397Z,16.11
2022-12-11T10:00:20.783Z,15.41
2022-12-11T10:03:09.405Z,14.65
2022-12-11T10:06:04.601Z,14.21
2022-12-11T10:08:53.489Z,14.29
2022-12-11T10:11:34.052Z,14.02
2022-12-11T10:14:34.917Z,13.10
2022-12-11T10:17:10.817Z,13.45
2022-12-11T10:19:37.703Z,12.64
2022-12-11T10:22:04.832Z,12.97
2022-12-11T10:27:31.783Z,14.01
2022-12-11T10:30:22.710Z,13.55
2022-12-11T10:33:02.515Z,13.80
2022-12-11T10:35:57.388Z,15.01
2022-12-11T10:38:29.551Z,14.89
2022-12-11T10:41:00.040Z,14.96
2022-12-11T10:43:40.133Z,14.69
2022-12-11T10:46:12.965Z,14.37
2022-12-11T10:48:53.330Z,13.61
2022-12-11T10:51:21.791Z,13.64
2022-12-11T10:53:56.251Z,12.93
2022-12-11T10:56:29.855Z,12.40
2022-12-11T10:58:58.747Z,12.11
2022-12-11T11:01:27.031Z,12.23
2022-12-11T11:04:05.393Z,12.32
2022-12-11T11:06:32.497Z,12.68
2022-12-11T11:09:01.348Z,12.39
2022-12-11T11:11:33.924Z,12.16
2022-12-11T11:14:05.290Z,11.67
2022-12-11T11:16:32.087Z,13.35
2022-12-11T11:18:59.176Z,13.31
2022-12-11T11:21:26.109Z,12.95
2022-12-11T11:23:53.856Z,13.75
2022-12-11T11:26:21.506Z,14.87
2022-12-11T11:28:53.194Z,15.98
2022-12-11T11:31:20.545Z,16.29
2022-12-11T11:33:57.021Z,17.05
2022-12-11T11:36:25.797Z,17.53
2022-12-11T11:39:14.123Z,18.77
2022-12-11T11:42:05.085Z,19.72
2022-12-11T11:44:41.410Z,18.99
2022-12-11T11:47:24.462Z,18.49
2022-12-11T11:49:55.897Z,18.88
2022-12-11T11:52:35.268Z,19.38
2022-12-11T11:55:22.500Z,18.72
2022-12-11T11:58:11.124Z,17.25
2022-12-11T12:00:38.272Z,17.63
2022-12-11T12:03:18.322Z,18.56
2022-12-11T12:06:16.270Z,17.16
2022-12-11T12:09:03.869Z,17.63
2022-12-11T12:11:49.673Z,17.26
2022-12-11T12:17:19.481Z,17.62
2022-12-11T12:19:59.151Z,16.73
2022-12-11T12:23:03.755Z,16.75
2022-12-11T12:25:53.387Z,16.84
2022-12-11T12:28:26.629Z,17.76
2022-12-11T12:31:21.952Z,15.99
2022-12-11T12:34:07.611Z,13.63
2022-12-11T12:36:56.516Z,16.33
2022-12-11T12:39:36.406Z,18.17
2022-12-11T12:42:18.654Z,16.61
2022-12-11T12:44:58.317Z,16.84
2022-12-11T12:47:26.797Z,16.82
2022-12-11T12:49:53.627Z,18.25
2022-12-11T12:52:29.191Z,17.97
2022-12-11T12:54:56.727Z,17.65
2022-12-11T12:57:23.504Z,17.74
2022-12-11T12:59:54.501Z,19.33
2022-12-11T13:02:21.263Z,19.03
2022-12-11T13:04:56.754Z,19.26
2022-12-11T13:07:26.769Z,18.98
2022-12-11T13:10:08.548Z,19.52
2022-12-11T13:12:45.540Z,19.54
2022-12-11T13:15:36.415Z,19.62
2022-12-11T13:18:05.166Z,19.92
2022-12-11T13:20:32.633Z,20.35
2022-12-11T13:23:19.877Z,21.18
2022-12-11T13:25:54.358Z,20.72
2022-12-11T13:28:24.841Z,20.40
2022-12-11T13:31:02.642Z,20.54
2022-12-11T13:33:31.748Z,21.95
2022-12-11T13:36:16.694Z,21.71
2022-12-11T13:39:01.281Z,22.00
2022-12-11T13:41:28.836Z,21.47
2022-12-11T13:43:55.665Z,21.95
2022-12-11T13:46:28.470Z,22.67
2022-12-11T13:48:59.377Z,22.23
2022-12-11T13:51:30.283Z,22.84
2022-12-11T13:54:16.965Z,21.62
2022-12-11T13:56:57.537Z,21.58
2022-12-11T13:59:35.624Z,20.55
2022-12-11T14:02:17.687Z,20.78
2022-12-11T14:04:44.701Z,20.74
2022-12-11T14:07:12.605Z,20.94
2022-12-11T14:09:43.540Z,21.31
2022-12-11T14:12:16.177Z,21.68
2022-12-11T14:14:45.895Z,21.10
2022-12-11T14:17:17.501Z,20.56
2022-12-11T14:19:49.841Z,21.07
2022-12-11T14:22:21.457Z,20.99
2022-12-11T14:24:55.861Z,20.92
2022-12-11T14:27:22.761Z,21.33
2022-12-11T14:29:49.635Z,21.10
2022-12-11T14:32:35.566Z,20.83
2022-12-11T14:35:04.244Z,22.14
2022-12-11T14:37:30.960Z,21.73
2022-12-11T14:40:04.004Z,22.20
2022-12-11T14:42:41.419Z,23.05
2022-12-11T14:45:23.383Z,21.98
2022-12-11T14:47:50.180Z,22.48
2022-12-11T14:53:41.892Z,22.27
2022-12-11T14:56:09.438Z,22.00
2022-12-11T14:58:44.972Z,22.47
2022-12-11T15:01:28.963Z,23.21
2022-12-11T15:04:28.209Z,22.79
2022-12-11T15:06:55.356Z,22.40
2022-12-11T15:09:27.697Z,23.39
2022-12-11T15:12:16.519Z,24.30
2022-12-11T15:14:57.190Z,24.44
2022-12-11T15:17:28.930Z,24.79
2022-12-11T15:20:08.076Z,24.86
2022-12-11T15:22:35.717Z,25.02
2022-12-11T15:25:02.961Z,24.52
2022-12-11T15:27:39.045Z,24.70
2022-12-11T15:30:15.933Z,24.45
2022-12-11T15:32:42.731Z,24.66
2022-12-11T15:35:24.141Z,24.91
2022-12-11T15:37:55.024Z,23.32
2022-12-11T15:40:22.449Z,23.24
2022-12-11T15:42:49.171Z,22.82
2022-12-11T15:45:21.631Z,24.18
2022-12-11T15:47:48.748Z,24.17
2022-12-11T15:50:17.688Z,23.77
2022-12-11T15:52:44.532Z,24.43
2022-12-11T15:55:11.582Z,24.64
2022-12-11T15:57:38.779Z,24.94
2022-12-11T16:00:07.641Z,25.31
2022-12-11T16:02:34.419Z,24.83
2022-12-11T16:05:01.223Z,24.40
2022-12-11T16:07:28.039Z,25.19
2022-12-11T16:09:54.800Z,24.78
2022-12-11T16:12:21.519Z,24.51
2022-12-11T16:14:48.230Z,24.60
2022-12-11T16:17:15.435Z,26.63
2022-12-11T16:19:43.279Z,27.48
2022-12-11T16:22:10.481Z,26.63
2022-12-11T16:24:37.338Z,28.06
2022-12-11T16:27:04.553Z,27.26
2022-12-11T16:29:38.264Z,27.44
2022-12-11T16:32:05.124Z,26.84
2022-12-11T16:34:31.867Z,28.67
2022-12-11T16:36:59.753Z,27.71
2022-12-11T16:39:26.469Z,26.98
2022-12-11T16:41:53.894Z,25.88
2022-12-11T16:44:21.646Z,26.96
2022-12-11T16:46:48.769Z,29.19
2022-12-11T16:49:15.468Z,35.87
2022-12-11T16:51:43.394Z,35.59
2022-12-11T16:54:10.658Z,30.17
2022-12-11T16:56:38.012Z,29.63
2022-12-11T16:59:05.235Z,30.21
2022-12-11T17:01:32.632Z,27.98
2022-12-11T17:03:59.425Z,27.97
2022-12-11T17:06:26.150Z,27.73
2022-12-11T17:08:53.256Z,29.88
2022-12-11T17:11:20.815Z,30.50
2022-12-11T17:13:47.690Z,29.09
2022-12-11T17:16:15.982Z,31.46
2022-12-11T17:18:42.912Z,29.14
2022-12-11T17:21:14.361Z,27.51
2022-12-11T17:23:41.183Z,29.02
2022-12-11T17:26:08.077Z,28.38
2022-12-11T17:28:35.222Z,27.45
2022-12-11T17:31:28.579Z,28.59
2022-12-11T17:33:55.381Z,29.77
2022-12-11T17:36:22.102Z,30.20
2022-12-11T17:38:49.313Z,30.72
2022-12-11T17:41:20.441Z,31.06
2022-12-11T17:43:51.629Z,29.31
2022-12-11T17:46:18.976Z,28.50
2022-12-11T17:48:45.729Z,30.86
2022-12-11T17:51:13.198Z,33.89
2022-12-11T17:53:41.448Z,32.61
2022-12-11T17:56:08.389Z,24.68
2022-12-11T17:58:35.106Z,20.90
2022-12-11T18:01:09.209Z,21.21
2022-12-11T18:03:36.303Z,21.00
2022-12-11T18:06:04.978Z,19.86
2022-12-11T18:08:32.150Z,20.53
2022-12-11T18:11:17.887Z,21.26
2022-12-11T18:13:44.788Z,19.84
2022-12-11T18:16:30.397Z,20.39
2022-12-11T18:19:04.055Z,20.36
2022-12-11T18:21:33.714Z,20.62
2022-12-11T18:24:00.713Z,21.21
2022-12-11T18:26:27.438Z,19.97
2022-12-11T18:28:54.192Z,20.49
2022-12-11T18:31:21.059Z,21.34
2022-12-11T18:33:50.922Z,22.57
2022-12-11T18:36:18.623Z,22.36
2022-12-11T18:38:45.481Z,23.68
2022-12-11T18:41:12.469Z,23.79
2022-12-11T18:43:39.276Z,24.60
2022-12-11T18:46:07.543Z,26.49
2022-12-11T18:48:34.448Z,25.84
2022-12-11T18:51:01.576Z,26.25
2022-12-11T18:53:28.353Z,27.45
2022-12-11T18:56:00.173Z,27.75
2022-12-11T18:58:27.500Z,29.93
2022-12-11T19:00:59.727Z,30.25
2022-12-11T19:03:27.862Z,29.49
2022-12-11T19:05:54.654Z,28.24
2022-12-11T19:08:21.433Z,29.67
2022-12-11T19:10:48.628Z,30.38
2022-12-11T19:13:15.341Z,29.89
2022-12-11T19:15:43.636Z,30.18
2022-12-11T19:18:10.668Z,29.58
2022-12-11T19:20:50.942Z,29.61
2022-12-11T19:23:20.905Z,30.22
2022-12-11T19:25:47.740Z,30.14
2022-12-11T19:28:14.820Z,30.80
2022-12-11T19:30:42.965Z,31.16
2022-12-11T19:33:09.756Z,31.33
2022-12-11T19:35:37.849Z,31.63
2022-12-11T19:38:04.633Z,31.03
2022-12-11T19:40:32.622Z,31.82
2022-12-11T19:43:00.592Z,31.02
2022-12-11T19:45:29.583Z,30.60
2022-12-11T19:47:56.686Z,31.54
2022-12-11T19:50:23.510Z,31.67
2022-12-11T19:52:50.333Z,30.91
2022-12-11T19:55:17.706Z,31.98
2022-12-11T19:57:45.533Z,30.68
2022-12-11T20:00:12.549Z,30.49
2022-12-11T20:02:39.506Z,32.60
2022-12-11T20:05:06.583Z,32.32
2022-12-11T20:07:33.327Z,32.78
2022-12-11T20:10:00.282Z,31.99
2022-12-11T20:12:27.185Z,32.26
2022-12-11T20:14:54.192Z,32.73
2022-12-11T20:17:21.985Z,32.44
2022-12-11T20:19:49.081Z,32.73
2022-12-11T20:22:16.282Z,31.97
2022-12-11T20:24:43.005Z,32.19
2022-12-11T20:27:10.194Z,30.86
2022-12-11T20:29:37.355Z,31.23
2022-12-11T20:32:04.115Z,31.47
2022-12-11T20:34:30.960Z,30.72
2022-12-11T20:36:58.045Z,30.75
2022-12-11T20:39:24.773Z,31.83
2022-12-11T20:41:51.493Z,32.48
2022-12-11T20:44:18.455Z,33.38
2022-12-11T20:46:45.226Z,33.79
2022-12-11T20:49:11.928Z,32.89
2022-12-11T20:51:39.139Z,30.47
2022-12-11T20:54:06.315Z,30.86
2022-12-11T20:56:34.480Z,31.75
2022-12-11T20:59:01.258Z,32.30
2022-12-11T21:01:31.206Z,33.63
2022-12-11T21:03:58.429Z,32.67
2022-12-11T21:06:29.957Z,32.66
2022-12-11T21:09:03.916Z,31.13
2022-12-11T21:11:30.725Z,30.68
2022-12-11T21:13:57.618Z,31.13
2022-12-11T21:16:24.720Z,30.85
2022-12-11T21:18:51.673Z,30.21
2022-12-11T21:21:20.146Z,30.76
2022-12-11T21:23:46.941Z,30.28
2022-12-11T21:26:13.714Z,30.92
2022-12-11T21:28:40.597Z,30.62
2022-12-11T21:31:09.743Z,30.55
2022-12-11T21:33:36.479Z,30.97
2022-12-11T21:36:05.373Z,30.74
2022-12-11T21:38:32.523Z,30.10
2022-12-11T21:41:22.484Z,29.60
2022-12-11T21:45:03.380Z,26.87
2022-12-11T21:46:38.081Z,26.59
2022-12-11T21:49:05.045Z,25.61
2022-12-11T21:51:37.170Z,26.35
2022-12-11T21:54:05.796Z,27.65
2022-12-11T21:56:32.535Z,26.67
2022-12-11T21:58:59.499Z,25.77
2022-12-11T22:01:29.136Z,25.57
2022-12-11T22:03:56.992Z,26.93
2022-12-11T22:06:23.737Z,26.79
2022-12-11T22:08:50.821Z,25.13
2022-12-11T22:11:22.052Z,26.19
2022-12-11T22:13:52.205Z,26.83
2022-12-11T22:16:19.784Z,25.69
2022-12-11T22:18:50.253Z,25.51
2022-12-11T22:21:17.389Z,24.02
2022-12-11T22:23:44.977Z,23.75
2022-12-11T22:26:20.348Z,23.88
2022-12-11T22:28:48.061Z,23.98
2022-12-11T22:31:15.518Z,23.33
2022-12-11T22:33:42.656Z,23.93
2022-12-11T22:36:10.987Z,22.91
2022-12-11T22:38:38.140Z,22.76
2022-12-11T22:41:42.942Z,21.90
2022-12-11T22:44:15.273Z,21.60
2022-12-11T22:46:45.422Z,21.80
2022-12-11T22:49:16.609Z,21.46
2022-12-11T22:51:43.345Z,20.68
2022-12-11T22:54:14.915Z,20.78
2022-12-11T22:56:41.936Z,21.57
2022-12-11T22:59:09.474Z,21.15
2022-12-11T23:01:36.312Z,21.23
2022-12-11T23:04:03.269Z,20.75
2022-12-11T23:06:30.288Z,21.42
2022-12-11T23:08:58.598Z,21.92
2022-12-11T23:11:34.783Z,21.85
2022-12-11T23:14:03.773Z,20.88
2022-12-11T23:16:30.652Z,21.51
2022-12-11T23:19:00.256Z,21.47
2022-12-11T23:21:27.635Z,21.10
2022-12-11T23:23:54.743Z,21.21
2022-12-11T23:26:21.870Z,20.81
2022-12-11T23:28:49.745Z,21.47
2022-12-11T23:31:16.952Z,21.53
2022-12-11T23:33:45.171Z,20.97
2022-12-11T23:36:12.938Z,22.17
2022-12-11T23:38:40.801Z,21.73
2022-12-11T23:41:07.896Z,21.26
2022-12-11T23:43:34.911Z,21.70
2022-12-11T23:46:05.231Z,21.61
2022-12-11T23:48:32.860Z,21.41
2022-12-11T23:51:00.648Z,22.07
2022-12-11T23:53:28.284Z,22.43
2022-12-11T23:55:57.066Z,23.19
2022-12-11T23:58:26.674Z,23.13
